createdAt,value
2022-12-31T00:02:09.303Z,100037.31
2022-12-31T00:06:20.864Z,100045.13
2022-12-31T00:10:22.299Z,100065.13
2022-12-31T00:14:23.714Z,100076.06
2022-12-31T00:18:26.875Z,100064.88
2022-12-31T00:22:28.294Z,100060.16
2022-12-31T00:26:31.700Z,100071.19
2022-12-31T00:30:34.374Z,100075.06
2022-12-31T00:34:35.912Z,100086.63
2022-12-31T00:38:38.385Z,100086.19
2022-12-31T00:42:39.914Z,100086.75
2022-12-31T00:50:42.041Z,100102.47
2022-12-31T00:54:43.708Z,100111.84
2022-12-31T00:58:45.265Z,100101.06
2022-12-31T01:02:46.784Z,100087.56
2022-12-31T01:06:48.516Z,100107.63
2022-12-31T01:11:08.482Z,100109.91
2022-12-31T01:15:10.376Z,100121.34
2022-12-31T01:19:17.978Z,100110.63
2022-12-31T01:23:19.431Z,100123.41
2022-12-31T01:27:20.853Z,100134.34
2022-12-31T01:31:23.640Z,100138.31
2022-12-31T01:35:25.586Z,100153.94
2022-12-31T01:39:27.037Z,100150.22
2022-12-31T01:43:50.082Z,100161.38
2022-12-31T01:47:57.090Z,100156.63
2022-12-31T01:52:06.588Z,100168.03
2022-12-31T01:56:09.561Z,100160.22
2022-12-31T02:00:11.635Z,100159.13
2022-12-31T02:04:14.911Z,100167.09
2022-12-31T02:08:17.485Z,100157.75
2022-12-31T02:12:19.524Z,100163.56
2022-12-31T02:16:37.667Z,100171.50
2022-12-31T02:21:00.422Z,100167.97
2022-12-31T02:25:01.856Z,100167.50
2022-12-31T02:29:41.260Z,100158.81
2022-12-31T02:33:52.120Z,100161.78
2022-12-31T02:37:59.196Z,100164.41
2022-12-31T02:42:02.609Z,100156.53
2022-12-31T02:46:16.658Z,100151.75
2022-12-31T02:50:32.430Z,100163.59
2022-12-31T02:54:49.224Z,100162.22
2022-12-31T02:59:39.135Z,100165.50
2022-12-31T03:03:41.468Z,100173.06
2022-12-31T03:07:44.242Z,100174.72
2022-12-31T03:12:05.040Z,100178.13
2022-12-31T03:16:06.779Z,100182.38
2022-12-31T03:20:27.474Z,100178.78
2022-12-31T03:24:47.726Z,100189.03
2022-12-31T03:28:49.115Z,100181.44
2022-12-31T03:32:51.701Z,100195.19
2022-12-31T03:36:53.149Z,100197.59
2022-12-31T03:40:54.621Z,100187.38
2022-12-31T03:44:56.105Z,100191.66
2022-12-31T03:48:58.596Z,100189.25
2022-12-31T03:53:00.727Z,100192.25
2022-12-31T03:57:02.161Z,100190.22
2022-12-31T04:01:03.655Z,100197.00
2022-12-31T04:05:05.706Z,100209.91
2022-12-31T04:09:07.108Z,100203.63
2022-12-31T04:13:08.546Z,100201.34
2022-12-31T04:17:10.033Z,100188.00
2022-12-31T04:21:11.552Z,100183.28
2022-12-31T04:25:13.241Z,100184.50
2022-12-31T04:29:14.730Z,100185.91
2022-12-31T04:33:16.150Z,100190.44
2022-12-31T04:37:17.637Z,100202.19
2022-12-31T04:41:19.758Z,100193.09
2022-12-31T04:45:21.180Z,100191.28
2022-12-31T04:49:22.642Z,100181.13
2022-12-31T04:53:24.600Z,100195.41
2022-12-31T04:57:26.037Z,100189.06
2022-12-31T05:01:27.586Z,100198.03
2022-12-31T05:05:29.129Z,100197.16
2022-12-31T05:09:31.015Z,100208.88
2022-12-31T05:13:33.817Z,100198.75
2022-12-31T05:17:35.346Z,100210.47
2022-12-31T05:21:37.007Z,100223.94
2022-12-31T05:25:38.549Z,100218.56
2022-12-31T05:29:39.966Z,100229.16
2022-12-31T05:33:41.417Z,100221.88
2022-12-31T05:37:43.459Z,100236.03
2022-12-31T05:41:44.882Z,100233.53
2022-12-31T05:45:46.350Z,100248.75
2022-12-31T05:49:47.916Z,100235.59
2022-12-31T05:53:49.314Z,100246.50
2022-12-31T05:57:50.861Z,100247.41
2022-12-31T06:01:52.304Z,100250.06
2022-12-31T06:05:53.748Z,100230.81
2022-12-31T06:09:55.186Z,100243.44
2022-12-31T06:13:58.195Z,100248.03
2022-12-31T06:17:59.737Z,100241.69
2022-12-31T06:22:01.216Z,100224.84
2022-12-31T06:26:06.487Z,100223.94
2022-12-31T06:30:08.767Z,100221.03
2022-12-31T06:34:10.303Z,100210.97
2022-12-31T06:38:11.839Z,100200.81
2022-12-31T06:42:14.336Z,100192.41
2022-12-31T06:46:17.387Z,100179.09
2022-12-31T06:50:19.019Z,100181.00
2022-12-31T06:54:20.528Z,100183.25
2022-12-31T06:58:22.336Z,100200.00
2022-12-31T07:02:53.869Z,100212.25
2022-12-31T07:07:13.282Z,100216.72
2022-12-31T07:11:20.535Z,100214.41
2022-12-31T07:15:55.192Z,100213.44
2022-12-31T07:20:14.506Z,100223.16
2022-12-31T07:24:16.430Z,100211.75
2022-12-31T07:28:49.321Z,100212.50
2022-12-31T07:33:00.123Z,100212.97
2022-12-31T07:37:27.987Z,100219.38
2022-12-31T07:41:54.658Z,100214.72
2022-12-31T07:46:35.935Z,100219.81
2022-12-31T07:50:38.646Z,100244.56
2022-12-31T07:54:40.153Z,100243.59
2022-12-31T07:59:02.503Z,100235.13
2022-12-31T08:03:32.209Z,100224.72
2022-12-31T08:08:00.697Z,100230.53
2022-12-31T08:12:02.774Z,100229.56
2022-12-31T08:16:04.600Z,100222.00
2022-12-31T08:20:06.869Z,100225.91
2022-12-31T08:24:43.877Z,100222.19
2022-12-31T08:28:54.207Z,100206.97
2022-12-31T08:33:28.822Z,100189.78
2022-12-31T08:38:01.348Z,100215.09
2022-12-31T08:42:10.005Z,100219.28
2022-12-31T08:46:24.073Z,100222.81
2022-12-31T08:50:25.895Z,100217.81
2022-12-31T08:54:28.052Z,100216.66
2022-12-31T08:58:42.472Z,100226.78
2022-12-31T09:03:05.450Z,100227.03
2022-12-31T09:07:09.508Z,100224.88
2022-12-31T09:11:40.231Z,100239.00
2022-12-31T09:15:52.206Z,100250.69
2022-12-31T09:19:54.064Z,100253.50
2022-12-31T09:23:55.711Z,100249.72
2022-12-31T09:28:09.238Z,100227.25
2022-12-31T09:32:25.233Z,100230.56
2022-12-31T09:36:38.093Z,100248.38
2022-12-31T09:41:02.097Z,100265.84
2022-12-31T09:45:30.382Z,100276.16
2022-12-31T09:50:11.080Z,100284.59
2022-12-31T09:54:36.661Z,100302.56
2022-12-31T09:59:02.987Z,100306.03
2022-12-31T10:03:40.463Z,100302.19
2022-12-31T10:08:16.714Z,100290.53
2022-12-31T10:12:51.081Z,100287.22
2022-12-31T10:17:27.819Z,100276.25
2022-12-31T10:21:47.331Z,100267.06
2022-12-31T10:26:16.793Z,100266.50
2022-12-31T10:30:20.816Z,100267.00
2022-12-31T10:34:31.413Z,100269.63
2022-12-31T10:38:47.381Z,100269.56
2022-12-31T10:43:22.442Z,100283.94
2022-12-31T10:47:45.744Z,100269.00
2022-12-31T10:51:59.481Z,100261.84
2022-12-31T10:56:35.705Z,100254.72
2022-12-31T11:01:13.351Z,100248.91
2022-12-31T11:05:52.120Z,100249.22
2022-12-31T11:10:36.079Z,100238.72
2022-12-31T11:15:22.144Z,100240.06
2022-12-31T11:20:17.718Z,100239.25
2022-12-31T11:24:46.994Z,100237.78
2022-12-31T11:29:11.570Z,100229.78
2022-12-31T11:33:50.466Z,100215.19
2022-12-31T11:38:27.866Z,100216.63
2022-12-31T11:43:02.277Z,100217.69
2022-12-31T11:47:22.018Z,100203.84
2022-12-31T11:51:32.700Z,100189.50
2022-12-31T11:55:49.692Z,100190.19
2022-12-31T11:59:57.064Z,100198.97
2022-12-31T12:03:58.860Z,100178.94
2022-12-31T12:08:01.638Z,100186.19
2022-12-31T12:12:05.257Z,100196.34
2022-12-31T12:16:08.151Z,100173.06
2022-12-31T12:20:19.979Z,100177.09
2022-12-31T12:24:26.872Z,100180.69
2022-12-31T12:28:44.323Z,100185.72
2022-12-31T12:32:58.801Z,100188.03
2022-12-31T12:37:01.441Z,100183.59
2022-12-31T12:41:06.099Z,100168.13
2022-12-31T12:45:15.792Z,100164.22
2022-12-31T12:49:32.831Z,100154.06
2022-12-31T12:54:22.364Z,100155.22
2022-12-31T12:58:48.020Z,100143.66
2022-12-31T13:03:12.475Z,100140.00
2022-12-31T13:07:41.933Z,100152.09
2022-12-31T13:12:10.092Z,100144.00
2022-12-31T13:16:36.745Z,100150.28
2022-12-31T13:20:50.040Z,100148.72
2022-12-31T13:25:03.365Z,100131.66
2022-12-31T13:29:08.757Z,100124.56
2022-12-31T13:33:20.456Z,100134.41
2022-12-31T13:37:27.394Z,100131.56
2022-12-31T13:41:49.335Z,100119.88
2022-12-31T14:48:43.500Z,100215.00
2022-12-31T14:58:29.868Z,100205.72
2022-12-31T15:02:34.368Z,100211.56
2022-12-31T15:06:48.675Z,100223.75
2022-12-31T15:11:03.686Z,100208.69
2022-12-31T15:15:17.417Z,100209.81
2022-12-31T15:19:18.836Z,100222.72
2022-12-31T15:23:23.141Z,100224.47
2022-12-31T15:27:33.273Z,100218.19
2022-12-31T15:31:36.344Z,100219.44
2022-12-31T15:35:48.198Z,100240.94
2022-12-31T15:39:49.714Z,100232.03
2022-12-31T15:43:51.154Z,100237.22
2022-12-31T15:47:57.829Z,100239.13
2022-12-31T15:52:07.926Z,100257.91
2022-12-31T15:56:15.872Z,100268.72
2022-12-31T16:00:22.593Z,100255.38
2022-12-31T16:04:32.532Z,100270.91
2022-12-31T16:08:35.346Z,100277.47
2022-12-31T16:12:44.323Z,100277.06
2022-12-31T16:17:25.155Z,100276.94
2022-12-31T16:21:35.746Z,100293.38
2022-12-31T16:25:37.249Z,100286.56
2022-12-31T16:29:45.838Z,100302.72
2022-12-31T16:33:50.299Z,100311.19
2022-12-31T16:38:31.480Z,100322.38
2022-12-31T16:42:32.935Z,100313.19
2022-12-31T16:46:35.608Z,100301.91
2022-12-31T16:50:37.565Z,100299.41
2022-12-31T16:54:43.774Z,100311.13
2022-12-31T16:58:45.759Z,100308.66
2022-12-31T17:03:05.088Z,100315.63
2022-12-31T17:07:26.958Z,100298.81
2022-12-31T17:11:34.862Z,100308.19
2022-12-31T17:15:43.129Z,100310.81
2022-12-31T17:19:48.648Z,100317.34
2022-12-31T17:23:55.494Z,100314.41
2022-12-31T17:28:00.586Z,100319.88
2022-12-31T17:32:18.048Z,100306.84
2022-12-31T17:36:24.738Z,100306.19
2022-12-31T17:40:54.434Z,100310.44
2022-12-31T17:45:00.590Z,100319.03
2022-12-31T17:49:02.947Z,100307.94
2022-12-31T17:53:12.218Z,100326.81
2022-12-31T17:57:26.930Z,100324.44
2022-12-31T18:01:28.575Z,100323.25
2022-12-31T18:05:30.098Z,100335.41
2022-12-31T18:09:34.588Z,100340.31
2022-12-31T18:13:36.729Z,100353.78
2022-12-31T18:17:38.216Z,100355.91
2022-12-31T18:21:39.966Z,100343.09
2022-12-31T18:29:41.909Z,100353.97
2022-12-31T18:33:43.931Z,100352.03
2022-12-31T18:37:45.984Z,100335.78
2022-12-31T18:41:50.975Z,100342.34
2022-12-31T18:45:53.092Z,100352.25
2022-12-31T18:49:54.881Z,100336.53
2022-12-31T18:53:56.443Z,100337.09
2022-12-31T18:57:57.938Z,100335.56
2022-12-31T19:01:59.486Z,100310.47
2022-12-31T19:06:00.983Z,100316.69
2022-12-31T19:10:02.404Z,100322.50
2022-12-31T19:14:05.839Z,100334.56
2022-12-31T19:18:07.515Z,100318.69
2022-12-31T19:22:16.282Z,100327.75
2022-12-31T19:26:20.128Z,100324.81
2022-12-31T19:30:26.794Z,100348.72
2022-12-31T19:34:28.367Z,100377.03
2022-12-31T19:38:32.078Z,100390.53
2022-12-31T19:42:33.541Z,100368.75
2022-12-31T19:46:34.959Z,100394.81
2022-12-31T19:50:36.435Z,100378.78
2022-12-31T19:54:38.015Z,100372.28
2022-12-31T19:58:39.635Z,100372.34
2022-12-31T20:02:41.633Z,100376.00
2022-12-31T20:06:43.204Z,100397.38
2022-12-31T20:10:45.950Z,100389.09
2022-12-31T20:14:47.379Z,100372.50
2022-12-31T20:18:50.439Z,100360.72
2022-12-31T20:22:52.237Z,100372.16
2022-12-31T20:26:53.688Z,100377.78
2022-12-31T20:30:55.302Z,100390.22
2022-12-31T20:34:56.789Z,100402.66
2022-12-31T20:38:58.608Z,100405.84
2022-12-31T20:43:00.131Z,100398.59
2022-12-31T20:47:01.595Z,100403.13
2022-12-31T20:51:03.196Z,100369.91
2022-12-31T20:55:05.403Z,100373.31
2022-12-31T20:59:08.214Z,100349.53
2022-12-31T21:03:30.102Z,100359.13
2022-12-31T21:07:31.168Z,100359.88
2022-12-31T21:11:51.105Z,100354.97
2022-12-31T21:15:53.814Z,100360.09
2022-12-31T21:19:55.248Z,100353.31
2022-12-31T21:23:56.833Z,100360.16
2022-12-31T21:27:58.277Z,100360.84
2022-12-31T21:31:59.773Z,100347.28
2022-12-31T21:36:04.794Z,100353.84
2022-12-31T21:40:06.885Z,100341.50
2022-12-31T21:44:08.350Z,100351.66
2022-12-31T21:48:20.414Z,100355.94
2022-12-31T21:52:28.452Z,100329.16
2022-12-31T21:56:30.064Z,100343.41
2022-12-31T22:00:50.337Z,100339.94
2022-12-31T22:05:17.349Z,100333.16
2022-12-31T22:09:13.231Z,100343.81
2022-12-31T22:13:15.901Z,100343.84
2022-12-31T22:17:17.400Z,100350.59
2022-12-31T22:21:21.182Z,100343.97
2022-12-31T22:25:22.701Z,100336.28
2022-12-31T22:29:25.856Z,100347.50
2022-12-31T22:33:27.366Z,100350.66
2022-12-31T22:37:56.236Z,100354.56
2022-12-31T22:41:50.765Z,100365.28
2022-12-31T22:45:52.843Z,100361.09
2022-12-31T22:49:54.286Z,100363.22
2022-12-31T22:53:55.730Z,100370.44
2022-12-31T22:57:57.305Z,100366.78
2022-12-31T23:01:58.712Z,100376.19
2022-12-31T23:06:00.233Z,100373.91
2022-12-31T23:10:20.340Z,100370.31
2022-12-31T23:14:40.446Z,100376.19
2022-12-31T23:19:05.403Z,100375.22
2022-12-31T23:23:11.607Z,100372.78
2022-12-31T23:27:13.177Z,100366.44
2022-12-31T23:31:14.711Z,100357.50
2022-12-31T23:35:16.211Z,100357.06
2022-12-31T23:39:17.789Z,100363.63
2022-12-31T23:43:22.012Z,100354.06
2022-12-31T23:47:23.482Z,100362.69
2022-12-31T23:51:24.944Z,100359.00
2022-12-31T23:55:26.551Z,100348.09
2022-12-31T23:59:28.085Z,100356.22
